Niteroi, Brazil
Current Conditions -  °F | °C
As of 3:00 PM on Sunday 23 Nov 2014 (Local Time) from SBRJ Reporting Station
Overcast Overcast  
Wind Chill: 77°   Ceiling: 8000
Heat Index: 78°   Visibility: 4mi
Dew Point: 73°   Wind: 8mph
Humidity: 89%   Direction: 170°S
Pressure: 29.88"   Gusts: NA
Location:  22.9°S, 43.13°W
Report Text: SBRJ 231700Z 17007KT 7000 SCT025 OVC080 25/23 Q1012
Loading
Personal Weather Stations






























Interactive Weather Map New forecast layout! Learn more

10-Day Weather Forecast

Advertisements
Track Severe Weather on mobile